createdAt,value
2022-09-18T00:01:41.136Z,-68
2022-09-18T00:04:13.085Z,-68
2022-09-18T00:06:44.310Z,-68
2022-09-18T00:09:16.757Z,-68
2022-09-18T00:11:49.442Z,-68
2022-09-18T00:14:22.266Z,-68
2022-09-18T00:16:50.842Z,-67
2022-09-18T00:19:19.220Z,-68
2022-09-18T00:21:52.050Z,-69
2022-09-18T00:24:22.465Z,-66
2022-09-18T00:26:50.554Z,-67
2022-09-18T00:29:19.075Z,-68
2022-09-18T00:31:47.797Z,-70
2022-09-18T00:34:17.348Z,-68
2022-09-18T00:36:46.411Z,-68
2022-09-18T00:39:15.391Z,-68
2022-09-18T00:41:45.544Z,-67
2022-09-18T00:44:49.671Z,-68
2022-09-18T00:47:37.022Z,-68
2022-09-18T00:50:18.372Z,-67
2022-09-18T00:52:59.330Z,-67
2022-09-18T00:55:34.481Z,-67
2022-09-18T00:58:04.337Z,-68
2022-09-18T01:00:34.001Z,-68
2022-09-18T01:03:02.716Z,-68
2022-09-18T01:06:05.043Z,-68
2022-09-18T01:09:01.944Z,-67
2022-09-18T01:11:41.998Z,-68
2022-09-18T01:14:42.101Z,-69
2022-09-18T01:17:32.115Z,-68
2022-09-18T01:20:27.493Z,-68
2022-09-18T01:23:15.186Z,-68
2022-09-18T01:26:16.977Z,-68
2022-09-18T01:29:15.373Z,-68
2022-09-18T01:32:19.068Z,-68
2022-09-18T01:35:39.437Z,-68
2022-09-18T01:38:24.580Z,-68
2022-09-18T01:40:57.924Z,-68
2022-09-18T01:43:30.338Z,-68
2022-09-18T01:46:04.558Z,-68
2022-09-18T01:48:38.371Z,-68
2022-09-18T01:51:15.586Z,-69
2022-09-18T01:53:49.467Z,-68
2022-09-18T01:56:25.678Z,-68
2022-09-18T01:58:59.092Z,-68
2022-09-18T02:01:31.215Z,-68
2022-09-18T02:04:05.157Z,-68
2022-09-18T02:07:12.174Z,-68
2022-09-18T02:09:40.192Z,-68
2022-09-18T02:12:12.600Z,-68
2022-09-18T02:14:44.914Z,-68
2022-09-18T02:17:38.999Z,-69
2022-09-18T02:20:20.399Z,-69
2022-09-18T02:22:51.856Z,-68
2022-09-18T02:25:25.858Z,-69
2022-09-18T02:27:55.933Z,-68
2022-09-18T02:30:24.759Z,-67
2022-09-18T02:32:57.366Z,-70
2022-09-18T02:35:36.069Z,-69
2022-09-18T02:38:20.407Z,-69
2022-09-18T02:41:02.820Z,-68
2022-09-18T02:44:01.409Z,-69
2022-09-18T02:46:45.255Z,-68
2022-09-18T02:49:36.127Z,-68
2022-09-18T02:52:25.316Z,-68
2022-09-18T02:55:06.340Z,-69
2022-09-18T02:57:43.034Z,-69
2022-09-18T03:00:17.048Z,-70
2022-09-18T03:02:47.256Z,-68
2022-09-18T03:05:15.518Z,-70
2022-09-18T03:07:43.929Z,-69
2022-09-18T03:10:13.118Z,-70
2022-09-18T03:12:41.571Z,-69
2022-09-18T03:15:11.079Z,-69
2022-09-18T03:17:39.843Z,-69
2022-09-18T03:20:08.559Z,-69
2022-09-18T03:22:36.559Z,-69
2022-09-18T03:25:05.497Z,-70
2022-09-18T03:27:33.848Z,-69
2022-09-18T03:30:01.842Z,-69
2022-09-18T03:32:30.232Z,-69
2022-09-18T03:34:58.594Z,-69
2022-09-18T03:37:26.980Z,-69
2022-09-18T03:39:55.018Z,-68
2022-09-18T03:42:23.028Z,-68
2022-09-18T03:44:51.454Z,-68
2022-09-18T03:47:19.448Z,-68
2022-09-18T03:49:48.133Z,-68
2022-09-18T03:52:16.499Z,-69
2022-09-18T03:54:44.791Z,-69
2022-09-18T03:57:12.796Z,-68
2022-09-18T03:59:41.235Z,-69
2022-09-18T04:02:09.614Z,-68
2022-09-18T04:04:37.671Z,-68
2022-09-18T04:07:07.326Z,-69
2022-09-18T04:09:35.808Z,-69
2022-09-18T04:12:04.552Z,-69
2022-09-18T04:14:33.040Z,-69
2022-09-18T04:17:01.754Z,-68
2022-09-18T04:19:29.903Z,-68
2022-09-18T04:21:58.380Z,-69
2022-09-18T04:24:27.362Z,-68
2022-09-18T04:26:55.922Z,-68
2022-09-18T04:29:24.286Z,-69
2022-09-18T04:31:52.782Z,-69
2022-09-18T04:34:20.772Z,-69
2022-09-18T04:36:48.944Z,-69
2022-09-18T04:39:17.463Z,-69
2022-09-18T04:41:46.500Z,-68
2022-09-18T04:44:14.539Z,-68
2022-09-18T04:46:42.924Z,-69
2022-09-18T04:49:11.529Z,-70
2022-09-18T04:51:39.575Z,-70
2022-09-18T04:54:07.569Z,-69
2022-09-18T04:56:35.941Z,-69
2022-09-18T04:59:04.895Z,-69
2022-09-18T05:01:33.336Z,-69
2022-09-18T05:04:01.430Z,-69
2022-09-18T05:06:29.824Z,-69
2022-09-18T05:08:59.350Z,-74
2022-09-18T05:11:28.364Z,-74
2022-09-18T05:13:58.162Z,-74
2022-09-18T05:16:26.637Z,-74
2022-09-18T05:18:56.896Z,-74
2022-09-18T05:21:25.597Z,-74
2022-09-18T05:23:53.723Z,-75
2022-09-18T05:26:22.150Z,-74
2022-09-18T05:28:51.202Z,-74
2022-09-18T05:31:19.746Z,-74
2022-09-18T05:33:47.713Z,-75
2022-09-18T05:36:15.795Z,-75
2022-09-18T05:38:45.603Z,-75
2022-09-18T05:41:14.050Z,-75
2022-09-18T05:43:46.055Z,-75
2022-09-18T05:46:15.054Z,-75
2022-09-18T05:48:43.438Z,-75
2022-09-18T05:51:11.446Z,-75
2022-09-18T05:53:39.426Z,-74
2022-09-18T05:56:08.149Z,-75
2022-09-18T05:58:36.649Z,-75
2022-09-18T06:01:05.087Z,-74
2022-09-18T06:03:33.207Z,-75
2022-09-18T06:06:01.570Z,-75
2022-09-18T06:08:29.930Z,-75
2022-09-18T06:11:02.668Z,-75
2022-09-18T06:13:31.061Z,-75
2022-09-18T06:15:59.652Z,-74
2022-09-18T06:18:27.827Z,-75
2022-09-18T06:20:58.795Z,-74
2022-09-18T06:23:29.369Z,-76
2022-09-18T06:26:09.458Z,-75
2022-09-18T06:28:41.230Z,-75
2022-09-18T06:31:09.483Z,-76
2022-09-18T06:33:37.717Z,-76
2022-09-18T06:36:09.072Z,-76
2022-09-18T06:38:37.598Z,-76
2022-09-18T06:41:06.111Z,-76
2022-09-18T06:43:34.575Z,-76
2022-09-18T06:46:04.557Z,-75
2022-09-18T06:48:33.083Z,-75
2022-09-18T06:51:02.166Z,-74
2022-09-18T06:53:30.147Z,-75
2022-09-18T06:56:03.530Z,-76
2022-09-18T06:58:31.993Z,-76
2022-09-18T07:01:03.937Z,-76
2022-09-18T07:03:32.351Z,-76
2022-09-18T07:06:00.867Z,-76
2022-09-18T07:08:29.242Z,-76
2022-09-18T07:11:02.950Z,-76
2022-09-18T07:13:37.564Z,-76
2022-09-18T07:16:05.984Z,-76
2022-09-18T07:18:34.681Z,-77
2022-09-18T07:21:03.968Z,-75
2022-09-18T07:23:33.428Z,-75
2022-09-18T07:26:02.643Z,-75
2022-09-18T07:28:31.282Z,-75
2022-09-18T07:31:07.083Z,-75
2022-09-18T07:33:35.438Z,-75
2022-09-18T07:36:05.595Z,-75
2022-09-18T07:38:34.293Z,-75
2022-09-18T07:41:06.034Z,-76
2022-09-18T07:43:34.611Z,-76
2022-09-18T07:46:03.585Z,-76
2022-09-18T07:48:31.624Z,-76
2022-09-18T07:51:00.014Z,-76
2022-09-18T07:53:29.534Z,-76
2022-09-18T07:55:57.943Z,-76
2022-09-18T07:58:26.974Z,-76
2022-09-18T08:00:55.362Z,-76
2022-09-18T08:03:25.351Z,-76
2022-09-18T08:05:55.167Z,-75
2022-09-18T08:08:23.727Z,-75
2022-09-18T08:10:52.113Z,-75
2022-09-18T08:13:20.558Z,-76
2022-09-18T08:15:51.632Z,-75
2022-09-18T08:18:23.018Z,-76
2022-09-18T08:20:51.387Z,-76
2022-09-18T08:23:19.370Z,-76
2022-09-18T08:25:48.116Z,-76
2022-09-18T08:28:17.155Z,-76
2022-09-18T08:30:45.701Z,-76
2022-09-18T08:33:14.109Z,-76
2022-09-18T08:35:42.801Z,-76
2022-09-18T08:38:12.080Z,-76
2022-09-18T08:40:43.796Z,-76
2022-09-18T08:44:25.590Z,-75
2022-09-18T08:47:09.123Z,-76
2022-09-18T08:50:24.906Z,-76
2022-09-18T08:53:03.539Z,-76
2022-09-18T08:55:41.055Z,-76
2022-09-18T08:58:27.980Z,-76
2022-09-18T09:01:10.870Z,-76
2022-09-18T09:04:09.527Z,-76
2022-09-18T09:07:28.843Z,-76
2022-09-18T09:10:44.982Z,-76
2022-09-18T09:13:42.254Z,-76
2022-09-18T09:16:51.855Z,-75
2022-09-18T09:19:40.128Z,-77
2022-09-18T09:22:41.037Z,-74
2022-09-18T09:25:16.700Z,-75
2022-09-18T09:27:50.418Z,-75
2022-09-18T09:30:21.395Z,-76
2022-09-18T09:32:59.076Z,-76
2022-09-18T09:35:37.679Z,-76
2022-09-18T09:38:50.150Z,-75
2022-09-18T09:41:37.048Z,-76
2022-09-18T09:44:21.041Z,-75
2022-09-18T09:47:26.391Z,-76
2022-09-18T09:50:16.613Z,-76
2022-09-18T09:52:47.537Z,-76
2022-09-18T09:55:17.468Z,-76
2022-09-18T09:58:27.319Z,-76
2022-09-18T10:01:15.345Z,-76
2022-09-18T10:04:02.901Z,-76
2022-09-18T10:07:24.849Z,-75
2022-09-18T10:10:05.446Z,-76
2022-09-18T10:13:06.298Z,-76
2022-09-18T10:15:45.795Z,-76
2022-09-18T10:18:36.828Z,-76
2022-09-18T10:21:15.646Z,-76
2022-09-18T10:23:55.104Z,-76
2022-09-18T10:26:45.169Z,-76
2022-09-18T10:29:13.591Z,-76
2022-09-18T10:32:01.016Z,-76
2022-09-18T10:34:45.225Z,-76
2022-09-18T10:37:29.913Z,-76
2022-09-18T10:40:01.583Z,-76
2022-09-18T10:42:39.309Z,-76
2022-09-18T10:45:22.568Z,-76
2022-09-18T10:47:51.269Z,-76
2022-09-18T10:50:21.203Z,-76
2022-09-18T10:52:54.039Z,-76
2022-09-18T10:55:27.412Z,-77
2022-09-18T10:58:13.047Z,-76
2022-09-18T11:00:49.620Z,-76
2022-09-18T11:03:44.127Z,-76
2022-09-18T11:06:18.704Z,-76
2022-09-18T11:08:53.376Z,-76
2022-09-18T11:11:32.924Z,-77
2022-09-18T11:14:18.319Z,-76
2022-09-18T11:16:55.410Z,-76
2022-09-18T11:19:38.048Z,-76
2022-09-18T11:22:38.923Z,-76
2022-09-18T11:25:15.961Z,-76
2022-09-18T11:27:53.169Z,-76
2022-09-18T11:30:26.085Z,-76
2022-09-18T11:33:11.039Z,-76
2022-09-18T11:35:47.521Z,-76
2022-09-18T11:38:20.128Z,-76
2022-09-18T11:40:54.800Z,-76
2022-09-18T11:43:27.315Z,-76
2022-09-18T11:46:21.847Z,-76
2022-09-18T11:49:04.405Z,-76
2022-09-18T11:52:19.314Z,-76
2022-09-18T11:54:56.742Z,-76
2022-09-18T11:58:01.314Z,-76
2022-09-18T12:00:36.830Z,-76
2022-09-18T12:03:08.426Z,-76
2022-09-18T12:06:07.703Z,-76
2022-09-18T12:08:47.860Z,-76
2022-09-18T12:11:45.575Z,-76
2022-09-18T12:14:38.032Z,-76
2022-09-18T12:17:19.459Z,-76
2022-09-18T12:19:55.042Z,-75
2022-09-18T12:22:53.324Z,-75
2022-09-18T12:26:04.917Z,-75
2022-09-18T12:29:10.827Z,-75
2022-09-18T12:32:12.186Z,-75
2022-09-18T12:35:01.051Z,-75
2022-09-18T12:38:19.592Z,-76
2022-09-18T12:41:13.329Z,-75
2022-09-18T12:44:30.923Z,-75
2022-09-18T12:47:52.306Z,-75
2022-09-18T12:50:20.684Z,-75
2022-09-18T12:53:19.632Z,-75
2022-09-18T12:56:03.640Z,-75
2022-09-18T12:58:34.813Z,-76
2022-09-18T13:01:23.720Z,-76
2022-09-18T13:03:53.643Z,-76
2022-09-18T13:06:36.834Z,-76
2022-09-18T13:09:23.913Z,-76
2022-09-18T13:12:04.700Z,-76
2022-09-18T13:14:46.463Z,-72
2022-09-18T13:17:22.251Z,-72
2022-09-18T13:20:25.749Z,-72
2022-09-18T13:22:54.387Z,-72
2022-09-18T13:25:34.514Z,-72
2022-09-18T13:28:08.499Z,-72
2022-09-18T13:30:37.082Z,-72
2022-09-18T13:33:05.404Z,-72
2022-09-18T13:35:36.407Z,-72
2022-09-18T13:38:10.737Z,-72
2022-09-18T13:40:58.381Z,-72
2022-09-18T13:43:29.618Z,-72
2022-09-18T13:46:03.451Z,-72
2022-09-18T13:48:49.605Z,-74
2022-09-18T13:51:30.631Z,-74
2022-09-18T13:54:23.528Z,-74
2022-09-18T13:57:03.886Z,-75
2022-09-18T13:59:48.267Z,-75
2022-09-18T14:02:34.254Z,-75
2022-09-18T14:05:25.861Z,-74
2022-09-18T14:08:19.932Z,-75
2022-09-18T14:11:13.637Z,-75
2022-09-18T14:13:55.457Z,-75
2022-09-18T14:16:24.646Z,-76
2022-09-18T14:19:07.342Z,-75
2022-09-18T14:21:42.146Z,-75
2022-09-18T14:24:38.884Z,-76
2022-09-18T14:27:36.361Z,-76
2022-09-18T14:30:19.592Z,-76
2022-09-18T14:33:04.455Z,-76
2022-09-18T14:36:14.873Z,-77
2022-09-18T14:38:43.110Z,-77
2022-09-18T14:41:19.603Z,-74
2022-09-18T14:43:52.793Z,-77
2022-09-18T14:46:28.099Z,-74
2022-09-18T14:48:56.700Z,-75
2022-09-18T14:51:28.403Z,-74
2022-09-18T14:53:58.872Z,-74
2022-09-18T14:56:38.703Z,-73
2022-09-18T14:59:09.569Z,-80
2022-09-18T15:01:40.785Z,-78
2022-09-18T15:04:17.200Z,-74
2022-09-18T15:06:55.895Z,-75
2022-09-18T15:09:34.646Z,-76
2022-09-18T15:12:03.654Z,-75
2022-09-18T15:14:45.499Z,-76
2022-09-18T15:17:28.541Z,-74
2022-09-18T15:20:03.707Z,-75
2022-09-18T15:22:32.081Z,-74
2022-09-18T15:25:01.949Z,-74
2022-09-18T15:27:31.585Z,-74
2022-09-18T15:30:18.708Z,-74
2022-09-18T15:33:05.595Z,-75
2022-09-18T15:35:37.990Z,-74
2022-09-18T15:38:20.391Z,-74
2022-09-18T15:40:48.762Z,-75
2022-09-18T15:43:32.181Z,-75
2022-09-18T15:46:09.091Z,-74
2022-09-18T15:48:48.183Z,-75
2022-09-18T15:51:17.589Z,-74
2022-09-18T15:54:24.859Z,-74
2022-09-18T15:56:58.028Z,-74
2022-09-18T15:59:38.778Z,-74
2022-09-18T16:02:27.709Z,-74
2022-09-18T16:04:56.399Z,-74
2022-09-18T16:07:29.599Z,-74
2022-09-18T16:09:58.095Z,-74
2022-09-18T16:12:32.572Z,-74
2022-09-18T16:15:14.906Z,-74
2022-09-18T16:17:45.910Z,-74
2022-09-18T16:20:53.782Z,-74
2022-09-18T16:23:31.470Z,-74
2022-09-18T16:26:11.672Z,-74
2022-09-18T16:28:46.224Z,-74
2022-09-18T16:31:21.541Z,-74
2022-09-18T16:34:01.754Z,-74
2022-09-18T16:36:38.917Z,-74
2022-09-18T16:39:35.012Z,-74
2022-09-18T16:42:19.655Z,-74
2022-09-18T16:44:48.114Z,-74
2022-09-18T16:47:18.102Z,-74
2022-09-18T16:49:49.473Z,-74
2022-09-18T16:52:18.124Z,-74
2022-09-18T16:54:46.669Z,-74
2022-09-18T16:57:23.712Z,-74
2022-09-18T16:59:52.669Z,-74
2022-09-18T17:02:26.000Z,-74
2022-09-18T17:04:54.547Z,-74
2022-09-18T17:07:23.004Z,-75
2022-09-18T17:09:51.993Z,-75
2022-09-18T17:12:20.435Z,-75
2022-09-18T17:14:49.024Z,-75
2022-09-18T17:17:17.619Z,-75
2022-09-18T17:19:45.591Z,-75
2022-09-18T17:22:14.177Z,-75
2022-09-18T17:24:42.285Z,-71
2022-09-18T17:27:10.695Z,-71
2022-09-18T17:29:39.961Z,-71
2022-09-18T17:32:08.366Z,-71
2022-09-18T17:34:36.940Z,-71
2022-09-18T17:37:05.433Z,-70
2022-09-18T17:39:33.800Z,-70
2022-09-18T17:42:02.593Z,-70
2022-09-18T17:44:34.487Z,-70
2022-09-18T17:47:03.236Z,-70
2022-09-18T17:49:34.677Z,-70
2022-09-18T17:52:03.066Z,-70
2022-09-18T17:54:34.096Z,-70
2022-09-18T17:57:02.842Z,-70
2022-09-18T17:59:31.094Z,-70
2022-09-18T18:01:59.579Z,-70
2022-09-18T18:04:27.540Z,-70
2022-09-18T18:06:55.938Z,-70
2022-09-18T18:09:24.487Z,-70
2022-09-18T18:11:52.916Z,-71
2022-09-18T18:14:21.412Z,-70
2022-09-18T18:16:52.495Z,-70
2022-09-18T18:19:21.090Z,-70
2022-09-18T18:21:49.693Z,-70
2022-09-18T18:24:18.967Z,-70
2022-09-18T18:26:48.199Z,-70
2022-09-18T18:29:19.493Z,-70
2022-09-18T18:31:50.428Z,-70
2022-09-18T18:34:22.580Z,-70
2022-09-18T18:36:51.329Z,-70
2022-09-18T18:39:20.089Z,-70
2022-09-18T18:41:49.861Z,-70
2022-09-18T18:44:18.485Z,-70
2022-09-18T18:46:46.929Z,-70
2022-09-18T18:49:16.712Z,-70
2022-09-18T18:51:48.632Z,-70
2022-09-18T18:54:19.851Z,-70
2022-09-18T18:56:48.879Z,-70
2022-09-18T18:59:23.080Z,-70
2022-09-18T19:01:51.555Z,-70
2022-09-18T19:04:20.143Z,-70
2022-09-18T19:06:50.015Z,-70
2022-09-18T19:09:26.009Z,-70
2022-09-18T19:11:54.596Z,-70
2022-09-18T19:14:30.743Z,-70
2022-09-18T19:16:59.375Z,-70
2022-09-18T19:19:29.306Z,-70
2022-09-18T19:21:59.544Z,-70
2022-09-18T19:24:28.629Z,-70
2022-09-18T19:26:57.318Z,-70
2022-09-18T19:29:25.454Z,-69
2022-09-18T19:31:53.530Z,-70
2022-09-18T19:34:23.897Z,-70
2022-09-18T19:36:53.557Z,-70
2022-09-18T19:39:24.567Z,-70
2022-09-18T19:42:06.658Z,-70
2022-09-18T19:44:48.683Z,-69
2022-09-18T19:47:41.041Z,-69
2022-09-18T19:50:20.824Z,-70
2022-09-18T19:52:51.373Z,-70
2022-09-18T19:55:21.051Z,-69
2022-09-18T19:57:50.330Z,-69
2022-09-18T20:00:20.309Z,-70
2022-09-18T20:02:48.258Z,-69
2022-09-18T20:05:16.526Z,-69
2022-09-18T20:07:44.955Z,-69
2022-09-18T20:10:15.375Z,-69
2022-09-18T20:12:44.422Z,-69
2022-09-18T20:15:13.225Z,-69
2022-09-18T20:17:41.392Z,-69
2022-09-18T20:20:14.479Z,-69
2022-09-18T20:22:44.810Z,-69
2022-09-18T20:25:13.331Z,-69
2022-09-18T20:27:43.236Z,-70
2022-09-18T20:30:13.437Z,-70
2022-09-18T20:32:42.221Z,-69
2022-09-18T20:35:11.121Z,-69
2022-09-18T20:37:39.592Z,-69
2022-09-18T20:40:13.433Z,-69
2022-09-18T20:42:42.333Z,-69
2022-09-18T20:45:10.984Z,-69
2022-09-18T20:47:39.426Z,-69
2022-09-18T20:50:13.456Z,-69
2022-09-18T20:52:43.767Z,-69
2022-09-18T20:55:16.459Z,-70
2022-09-18T20:57:46.486Z,-69
2022-09-18T21:00:17.655Z,-69
2022-09-18T21:02:50.809Z,-70
2022-09-18T21:05:19.460Z,-70
2022-09-18T21:07:48.251Z,-70
2022-09-18T21:10:16.901Z,-70
2022-09-18T21:12:45.292Z,-69
2022-09-18T21:15:15.315Z,-68
2022-09-18T21:17:44.244Z,-69
2022-09-18T21:20:13.180Z,-68
2022-09-18T21:22:55.455Z,-68
2022-09-18T21:25:24.830Z,-67
2022-09-18T21:27:56.781Z,-68
2022-09-18T21:30:27.976Z,-68
2022-09-18T21:32:56.341Z,-68
2022-09-18T21:35:24.417Z,-68
2022-09-18T21:37:55.488Z,-67
2022-09-18T21:40:24.139Z,-68
2022-09-18T21:42:53.134Z,-67
2022-09-18T21:45:21.661Z,-67
2022-09-18T21:47:51.320Z,-67
2022-09-18T21:50:20.500Z,-66
2022-09-18T21:52:49.051Z,-67
2022-09-18T21:55:17.615Z,-67
2022-09-18T21:57:46.848Z,-67
2022-09-18T22:00:14.951Z,-67
2022-09-18T22:02:43.370Z,-67
2022-09-18T22:05:12.213Z,-66
2022-09-18T22:07:40.878Z,-66
2022-09-18T22:10:09.665Z,-67
2022-09-18T22:12:39.051Z,-67
2022-09-18T22:15:07.873Z,-67
2022-09-18T22:17:36.245Z,-67
2022-09-18T22:20:04.924Z,-66
2022-09-18T22:22:32.907Z,-67
2022-09-18T22:25:03.245Z,-66
2022-09-18T22:27:31.635Z,-67
2022-09-18T22:29:59.882Z,-67
2022-09-18T22:32:28.298Z,-67
2022-09-18T22:34:56.246Z,-67
2022-09-18T22:37:24.597Z,-67
2022-09-18T22:39:53.348Z,-66
2022-09-18T22:42:21.946Z,-67
2022-09-18T22:44:50.050Z,-67
2022-09-18T22:47:18.019Z,-66
2022-09-18T22:50:02.226Z,-67
2022-09-18T22:52:30.599Z,-67
2022-09-18T22:54:58.721Z,-66
2022-09-18T22:57:26.708Z,-68
2022-09-18T22:59:54.857Z,-68
2022-09-18T23:02:23.357Z,-68
2022-09-18T23:04:51.943Z,-67
2022-09-18T23:07:20.295Z,-67
2022-09-18T23:09:48.934Z,-68
2022-09-18T23:12:17.487Z,-67
2022-09-18T23:14:45.492Z,-67
2022-09-18T23:17:13.496Z,-67
2022-09-18T23:19:42.300Z,-67
2022-09-18T23:22:12.257Z,-67
2022-09-18T23:24:40.930Z,-77
2022-09-18T23:27:09.358Z,-76
2022-09-18T23:29:39.031Z,-77
2022-09-18T23:32:08.323Z,-77
2022-09-18T23:34:36.964Z,-76
2022-09-18T23:37:05.190Z,-76
2022-09-18T23:39:35.712Z,-76
2022-09-18T23:42:05.892Z,-76
2022-09-18T23:44:34.491Z,-76
2022-09-18T23:47:03.526Z,-76
2022-09-18T23:49:32.344Z,-76
2022-09-18T23:52:01.551Z,-75
2022-09-18T23:54:32.367Z,-76
2022-09-18T23:57:00.818Z,-76
2022-09-18T23:59:29.150Z,-75
